sensor_id;sensor_type;location;lat;lon;timestamp;P1;P2;P0
80555;PMS5003;69889;55.040;73.076;2024-02-23T00:01:47;43.00;32.25;16.50
80555;PMS5003;69889;55.040;73.076;2024-02-23T00:04:14;33.00;25.50;14.75
80555;PMS5003;69889;55.040;73.076;2024-02-23T00:06:40;37.50;28.50;16.75
80555;PMS5003;69889;55.040;73.076;2024-02-23T00:09:07;30.00;22.50;13.00
80555;PMS5003;69889;55.040;73.076;2024-02-23T00:11:33;31.50;24.75;12.75
80555;PMS5003;69889;55.040;73.076;2024-02-23T00:14:00;39.75;29.75;15.50
80555;PMS5003;69889;55.040;73.076;2024-02-23T00:16:26;31.50;23.75;11.75
80555;PMS5003;69889;55.040;73.076;2024-02-23T00:18:53;37.00;28.00;12.75
80555;PMS5003;69889;55.040;73.076;2024-02-23T00:21:19;31.75;24.00;13.50
80555;PMS5003;69889;55.040;73.076;2024-02-23T00:23:45;33.25;24.50;14.50
80555;PMS5003;69889;55.040;73.076;2024-02-23T00:26:12;37.25;28.25;16.50
80555;PMS5003;69889;55.040;73.076;2024-02-23T00:28:38;62.00;48.50;26.50
80555;PMS5003;69889;55.040;73.076;2024-02-23T00:31:05;28.50;23.75;13.50
80555;PMS5003;69889;55.040;73.076;2024-02-23T00:33:31;30.00;24.00;12.75
80555;PMS5003;69889;55.040;73.076;2024-02-23T00:35:58;33.25;25.50;14.50
80555;PMS5003;69889;55.040;73.076;2024-02-23T00:38:24;32.75;24.25;13.25
80555;PMS5003;69889;55.040;73.076;2024-02-23T00:40:50;19.00;17.50;10.00
80555;PMS5003;69889;55.040;73.076;2024-02-23T00:43:18;28.00;21.50;10.75
80555;PMS5003;69889;55.040;73.076;2024-02-23T00:45:45;30.00;25.00;13.50
80555;PMS5003;69889;55.040;73.076;2024-02-23T00:48:13;39.00;29.50;15.25
80555;PMS5003;69889;55.040;73.076;2024-02-23T00:50:39;22.50;18.50;9.50
80555;PMS5003;69889;55.040;73.076;2024-02-23T00:53:06;19.00;16.25;9.00
80555;PMS5003;69889;55.040;73.076;2024-02-23T00:55:32;24.75;20.25;11.50
80555;PMS5003;69889;55.040;73.076;2024-02-23T00:57:59;33.50;25.50;14.50
80555;PMS5003;69889;55.040;73.076;2024-02-23T01:00:25;33.25;26.25;15.25
80555;PMS5003;69889;55.040;73.076;2024-02-23T01:02:52;21.00;18.50;10.25
80555;PMS5003;69889;55.040;73.076;2024-02-23T01:05:18;15.50;13.25;7.50
80555;PMS5003;69889;55.040;73.076;2024-02-23T01:07:45;20.50;17.00;10.50
80555;PMS5003;69889;55.040;73.076;2024-02-23T01:10:11;32.75;25.50;13.50
80555;PMS5003;69889;55.040;73.076;2024-02-23T01:12:38;28.25;22.00;11.75
80555;PMS5003;69889;55.040;73.076;2024-02-23T01:15:04;22.50;19.25;12.50
80555;PMS5003;69889;55.040;73.076;2024-02-23T01:17:31;38.50;28.25;17.25
80555;PMS5003;69889;55.040;73.076;2024-02-23T01:19:57;24.25;19.00;11.50
80555;PMS5003;69889;55.040;73.076;2024-02-23T01:22:24;27.50;22.50;11.50
80555;PMS5003;69889;55.040;73.076;2024-02-23T01:24:50;27.00;22.00;12.50
80555;PMS5003;69889;55.040;73.076;2024-02-23T01:27:17;24.50;22.00;12.50
80555;PMS5003;69889;55.040;73.076;2024-02-23T01:29:44;22.25;17.50;10.00
80555;PMS5003;69889;55.040;73.076;2024-02-23T01:32:11;24.00;19.50;10.50
80555;PMS5003;69889;55.040;73.076;2024-02-23T01:34:37;21.50;18.50;8.75
80555;PMS5003;69889;55.040;73.076;2024-02-23T01:37:03;22.00;17.50;10.75
80555;PMS5003;69889;55.040;73.076;2024-02-23T01:39:30;23.00;19.25;10.75
80555;PMS5003;69889;55.040;73.076;2024-02-23T01:41:56;27.75;23.00;12.50
80555;PMS5003;69889;55.040;73.076;2024-02-23T01:44:23;25.00;20.25;11.50
80555;PMS5003;69889;55.040;73.076;2024-02-23T01:46:49;30.25;23.25;10.50
80555;PMS5003;69889;55.040;73.076;2024-02-23T01:49:16;21.75;18.25;10.50
80555;PMS5003;69889;55.040;73.076;2024-02-23T01:51:43;31.00;21.75;11.75
80555;PMS5003;69889;55.040;73.076;2024-02-23T01:54:09;21.50;18.00;9.00
80555;PMS5003;69889;55.040;73.076;2024-02-23T01:56:36;25.25;19.50;10.50
80555;PMS5003;69889;55.040;73.076;2024-02-23T01:59:03;26.50;20.75;9.75
80555;PMS5003;69889;55.040;73.076;2024-02-23T02:01:30;33.75;22.50;12.00
80555;PMS5003;69889;55.040;73.076;2024-02-23T02:03:57;32.00;25.75;13.75
80555;PMS5003;69889;55.040;73.076;2024-02-23T02:06:24;23.25;20.00;11.50
80555;PMS5003;69889;55.040;73.076;2024-02-23T02:08:50;32.50;25.25;13.50
80555;PMS5003;69889;55.040;73.076;2024-02-23T02:11:17;32.75;25.50;13.50
80555;PMS5003;69889;55.040;73.076;2024-02-23T02:13:43;25.00;19.50;10.50
80555;PMS5003;69889;55.040;73.076;2024-02-23T02:16:10;29.00;23.00;12.75
80555;PMS5003;69889;55.040;73.076;2024-02-23T02:18:37;23.50;19.25;10.00
80555;PMS5003;69889;55.040;73.076;2024-02-23T02:21:03;25.50;20.00;9.50
80555;PMS5003;69889;55.040;73.076;2024-02-23T02:23:30;29.50;23.00;12.25
80555;PMS5003;69889;55.040;73.076;2024-02-23T02:25:57;42.25;29.50;14.50
80555;PMS5003;69889;55.040;73.076;2024-02-23T02:28:42;25.25;20.50;12.50
80555;PMS5003;69889;55.040;73.076;2024-02-23T02:31:09;21.25;18.00;10.50
80555;PMS5003;69889;55.040;73.076;2024-02-23T02:33:35;20.25;17.00;11.75
80555;PMS5003;69889;55.040;73.076;2024-02-23T02:36:01;17.25;14.25;8.50
80555;PMS5003;69889;55.040;73.076;2024-02-23T02:38:28;24.75;21.50;12.25
80555;PMS5003;69889;55.040;73.076;2024-02-23T02:40:55;17.00;14.25;8.50
80555;PMS5003;69889;55.040;73.076;2024-02-23T02:43:23;27.50;21.25;10.00
80555;PMS5003;69889;55.040;73.076;2024-02-23T02:45:49;28.25;21.00;7.50
80555;PMS5003;69889;55.040;73.076;2024-02-23T02:48:16;25.00;21.25;11.00
80555;PMS5003;69889;55.040;73.076;2024-02-23T02:50:42;20.25;17.00;8.50
80555;PMS5003;69889;55.040;73.076;2024-02-23T02:53:10;27.25;22.50;12.25
80555;PMS5003;69889;55.040;73.076;2024-02-23T02:55:37;26.00;20.25;9.50
80555;PMS5003;69889;55.040;73.076;2024-02-23T02:58:03;30.00;23.50;13.75
80555;PMS5003;69889;55.040;73.076;2024-02-23T03:00:30;29.00;21.25;10.50
80555;PMS5003;69889;55.040;73.076;2024-02-23T03:02:57;19.50;17.50;9.25
80555;PMS5003;69889;55.040;73.076;2024-02-23T03:05:23;28.50;23.25;12.75
80555;PMS5003;69889;55.040;73.076;2024-02-23T03:07:50;16.50;13.75;6.50
80555;PMS5003;69889;55.040;73.076;2024-02-23T03:10:16;24.50;18.25;10.50
80555;PMS5003;69889;55.040;73.076;2024-02-23T03:12:42;33.00;25.50;12.50
80555;PMS5003;69889;55.040;73.076;2024-02-23T03:15:09;27.50;23.75;13.25
80555;PMS5003;69889;55.040;73.076;2024-02-23T03:17:38;28.25;22.50;10.75
80555;PMS5003;69889;55.040;73.076;2024-02-23T03:20:05;36.00;26.50;12.75
80555;PMS5003;69889;55.040;73.076;2024-02-23T03:22:35;27.00;22.25;12.50
80555;PMS5003;69889;55.040;73.076;2024-02-23T03:25:02;37.50;27.00;12.00
80555;PMS5003;69889;55.040;73.076;2024-02-23T03:27:34;23.00;16.50;10.25
80555;PMS5003;69889;55.040;73.076;2024-02-23T03:30:04;29.00;22.25;12.25
80555;PMS5003;69889;55.040;73.076;2024-02-23T03:32:34;25.00;21.25;11.50
80555;PMS5003;69889;55.040;73.076;2024-02-23T03:35:05;32.25;25.50;15.00
80555;PMS5003;69889;55.040;73.076;2024-02-23T03:37:31;40.25;29.50;17.00
80555;PMS5003;69889;55.040;73.076;2024-02-23T03:39:58;27.75;22.00;12.50
80555;PMS5003;69889;55.040;73.076;2024-02-23T03:42:26;33.25;24.00;15.50
80555;PMS5003;69889;55.040;73.076;2024-02-23T03:44:53;39.75;30.25;18.50
80555;PMS5003;69889;55.040;73.076;2024-02-23T03:47:19;40.75;28.00;16.50
80555;PMS5003;69889;55.040;73.076;2024-02-23T03:49:46;33.50;22.50;13.00
80555;PMS5003;69889;55.040;73.076;2024-02-23T03:52:13;43.00;31.25;16.25
80555;PMS5003;69889;55.040;73.076;2024-02-23T03:54:39;36.00;27.25;16.50
80555;PMS5003;69889;55.040;73.076;2024-02-23T03:57:06;32.25;26.25;15.50
80555;PMS5003;69889;55.040;73.076;2024-02-23T03:59:32;47.00;35.00;20.00
80555;PMS5003;69889;55.040;73.076;2024-02-23T04:01:59;36.75;29.50;16.75
80555;PMS5003;69889;55.040;73.076;2024-02-23T04:04:25;40.50;31.00;16.25
80555;PMS5003;69889;55.040;73.076;2024-02-23T04:06:52;47.00;35.75;21.50
80555;PMS5003;69889;55.040;73.076;2024-02-23T04:09:18;46.50;35.25;20.50
80555;PMS5003;69889;55.040;73.076;2024-02-23T04:11:47;45.50;36.75;20.00
80555;PMS5003;69889;55.040;73.076;2024-02-23T04:14:14;47.75;37.25;22.50
80555;PMS5003;69889;55.040;73.076;2024-02-23T04:16:40;49.75;36.75;21.25
80555;PMS5003;69889;55.040;73.076;2024-02-23T04:19:07;46.50;35.00;19.50
80555;PMS5003;69889;55.040;73.076;2024-02-23T04:21:34;38.50;29.00;15.50
80555;PMS5003;69889;55.040;73.076;2024-02-23T04:24:00;46.75;35.75;21.50
80555;PMS5003;69889;55.040;73.076;2024-02-23T04:26:27;55.00;43.50;24.50
80555;PMS5003;69889;55.040;73.076;2024-02-23T04:28:53;48.25;34.75;22.25
80555;PMS5003;69889;55.040;73.076;2024-02-23T04:31:19;48.00;36.00;21.75
80555;PMS5003;69889;55.040;73.076;2024-02-23T04:33:46;49.00;37.50;22.50
80555;PMS5003;69889;55.040;73.076;2024-02-23T04:36:12;47.50;36.25;21.25
80555;PMS5003;69889;55.040;73.076;2024-02-23T04:38:39;54.00;42.25;24.25
80555;PMS5003;69889;55.040;73.076;2024-02-23T04:41:05;57.75;42.50;24.50
80555;PMS5003;69889;55.040;73.076;2024-02-23T04:43:33;59.50;45.50;27.00
80555;PMS5003;69889;55.040;73.076;2024-02-23T04:45:59;51.75;41.25;25.00
80555;PMS5003;69889;55.040;73.076;2024-02-23T04:48:26;56.75;40.25;24.00
80555;PMS5003;69889;55.040;73.076;2024-02-23T04:50:52;56.50;43.50;26.50
80555;PMS5003;69889;55.040;73.076;2024-02-23T04:53:19;65.75;49.50;27.25
80555;PMS5003;69889;55.040;73.076;2024-02-23T04:55:45;48.00;39.00;24.00
80555;PMS5003;69889;55.040;73.076;2024-02-23T04:58:12;55.00;42.50;25.50
80555;PMS5003;69889;55.040;73.076;2024-02-23T05:00:43;50.00;39.50;24.50
80555;PMS5003;69889;55.040;73.076;2024-02-23T05:03:09;53.25;41.25;25.00
80555;PMS5003;69889;55.040;73.076;2024-02-23T05:05:36;59.75;45.00;27.50
80555;PMS5003;69889;55.040;73.076;2024-02-23T05:08:02;54.25;40.00;24.75
80555;PMS5003;69889;55.040;73.076;2024-02-23T05:10:30;54.00;42.00;25.25
80555;PMS5003;69889;55.040;73.076;2024-02-23T05:12:56;55.00;42.00;25.50
80555;PMS5003;69889;55.040;73.076;2024-02-23T05:15:22;72.75;52.00;31.50
80555;PMS5003;69889;55.040;73.076;2024-02-23T05:17:50;73.75;56.00;33.50
80555;PMS5003;69889;55.040;73.076;2024-02-23T05:20:17;76.00;60.00;35.25
80555;PMS5003;69889;55.040;73.076;2024-02-23T05:22:43;73.50;58.75;35.00
80555;PMS5003;69889;55.040;73.076;2024-02-23T05:25:09;69.00;51.75;31.25
80555;PMS5003;69889;55.040;73.076;2024-02-23T05:27:36;77.00;58.75;33.50
80555;PMS5003;69889;55.040;73.076;2024-02-23T05:30:02;79.25;63.00;36.25
80555;PMS5003;69889;55.040;73.076;2024-02-23T05:32:31;73.75;58.75;35.00
80555;PMS5003;69889;55.040;73.076;2024-02-23T05:34:57;87.50;71.50;42.25
80555;PMS5003;69889;55.040;73.076;2024-02-23T05:37:24;91.00;71.50;42.00
80555;PMS5003;69889;55.040;73.076;2024-02-23T05:39:50;94.25;73.50;43.00
80555;PMS5003;69889;55.040;73.076;2024-02-23T05:42:17;95.50;76.75;43.00
80555;PMS5003;69889;55.040;73.076;2024-02-23T05:44:43;89.50;72.75;43.50
80555;PMS5003;69889;55.040;73.076;2024-02-23T05:47:10;89.25;70.75;41.75
80555;PMS5003;69889;55.040;73.076;2024-02-23T05:49:37;84.00;67.25;38.00
80555;PMS5003;69889;55.040;73.076;2024-02-23T05:52:04;91.00;73.75;44.75
80555;PMS5003;69889;55.040;73.076;2024-02-23T05:54:30;81.00;65.00;37.75
80555;PMS5003;69889;55.040;73.076;2024-02-23T05:56:56;84.75;71.50;41.75
80555;PMS5003;69889;55.040;73.076;2024-02-23T05:59:23;79.00;66.00;38.50
80555;PMS5003;69889;55.040;73.076;2024-02-23T06:01:49;87.00;71.50;41.00
80555;PMS5003;69889;55.040;73.076;2024-02-23T06:04:18;89.00;74.50;44.50
80555;PMS5003;69889;55.040;73.076;2024-02-23T06:06:44;85.50;70.00;41.75
80555;PMS5003;69889;55.040;73.076;2024-02-23T06:09:13;79.00;62.50;39.00
80555;PMS5003;69889;55.040;73.076;2024-02-23T06:11:40;90.75;74.75;44.50
80555;PMS5003;69889;55.040;73.076;2024-02-23T06:14:06;91.00;73.00;42.75
80555;PMS5003;69889;55.040;73.076;2024-02-23T06:16:32;99.25;79.50;47.00
80555;PMS5003;69889;55.040;73.076;2024-02-23T06:18:59;94.75;72.50;42.50
80555;PMS5003;69889;55.040;73.076;2024-02-23T06:21:25;94.00;78.25;45.00
80555;PMS5003;69889;55.040;73.076;2024-02-23T06:23:52;88.75;71.75;41.00
80555;PMS5003;69889;55.040;73.076;2024-02-23T06:26:19;98.25;75.50;46.00
80555;PMS5003;69889;55.040;73.076;2024-02-23T06:28:45;109.25;88.25;50.00
80555;PMS5003;69889;55.040;73.076;2024-02-23T06:31:12;115.50;92.50;53.75
80555;PMS5003;69889;55.040;73.076;2024-02-23T06:33:38;102.50;84.00;46.25
80555;PMS5003;69889;55.040;73.076;2024-02-23T06:36:06;107.25;82.75;48.00
80555;PMS5003;69889;55.040;73.076;2024-02-23T06:38:34;103.50;84.50;49.75
80555;PMS5003;69889;55.040;73.076;2024-02-23T06:41:00;115.00;90.50;55.75
80555;PMS5003;69889;55.040;73.076;2024-02-23T06:43:27;122.50;100.00;55.50
80555;PMS5003;69889;55.040;73.076;2024-02-23T06:45:53;119.25;96.25;53.00
80555;PMS5003;69889;55.040;73.076;2024-02-23T06:48:23;115.75;95.00;57.00
80555;PMS5003;69889;55.040;73.076;2024-02-23T06:51:01;115.25;94.50;53.00
80555;PMS5003;69889;55.040;73.076;2024-02-23T06:53:27;111.00;89.25;52.75
80555;PMS5003;69889;55.040;73.076;2024-02-23T06:55:54;91.75;75.00;42.75
80555;PMS5003;69889;55.040;73.076;2024-02-23T06:58:20;72.00;57.50;34.00
80555;PMS5003;69889;55.040;73.076;2024-02-23T07:00:47;73.75;57.50;34.50
80555;PMS5003;69889;55.040;73.076;2024-02-23T07:03:13;72.25;55.25;34.00
80555;PMS5003;69889;55.040;73.076;2024-02-23T07:05:40;74.50;56.50;34.00
80555;PMS5003;69889;55.040;73.076;2024-02-23T07:08:08;68.75;51.25;31.50
80555;PMS5003;69889;55.040;73.076;2024-02-23T07:10:34;72.50;54.00;33.00
80555;PMS5003;69889;55.040;73.076;2024-02-23T07:13:01;70.00;53.25;33.00
80555;PMS5003;69889;55.040;73.076;2024-02-23T07:15:27;68.75;52.50;32.50
80555;PMS5003;69889;55.040;73.076;2024-02-23T07:17:54;63.25;49.00;31.25
80555;PMS5003;69889;55.040;73.076;2024-02-23T07:20:20;67.75;52.00;32.75
80555;PMS5003;69889;55.040;73.076;2024-02-23T07:22:46;75.00;56.50;33.50
80555;PMS5003;69889;55.040;73.076;2024-02-23T07:25:16;68.75;53.25;32.25
80555;PMS5003;69889;55.040;73.076;2024-02-23T07:27:44;74.75;54.50;33.50
80555;PMS5003;69889;55.040;73.076;2024-02-23T07:30:11;74.50;56.50;32.50
80555;PMS5003;69889;55.040;73.076;2024-02-23T07:32:38;72.00;54.50;33.50
80555;PMS5003;69889;55.040;73.076;2024-02-23T07:35:04;75.00;58.00;33.75
80555;PMS5003;69889;55.040;73.076;2024-02-23T07:37:30;66.50;51.50;32.00
80555;PMS5003;69889;55.040;73.076;2024-02-23T07:39:57;75.25;57.75;33.25
80555;PMS5003;69889;55.040;73.076;2024-02-23T07:42:23;77.25;61.50;34.75
80555;PMS5003;69889;55.040;73.076;2024-02-23T07:44:50;70.25;54.25;33.25
80555;PMS5003;69889;55.040;73.076;2024-02-23T07:47:16;74.00;57.00;34.50
80555;PMS5003;69889;55.040;73.076;2024-02-23T07:49:43;77.25;61.50;36.50
80555;PMS5003;69889;55.040;73.076;2024-02-23T07:52:10;72.25;55.25;34.25
80555;PMS5003;69889;55.040;73.076;2024-02-23T07:54:36;75.50;61.00;35.00
80555;PMS5003;69889;55.040;73.076;2024-02-23T07:57:03;77.50;61.25;34.75
80555;PMS5003;69889;55.040;73.076;2024-02-23T07:59:31;75.25;58.75;34.00
80555;PMS5003;69889;55.040;73.076;2024-02-23T08:01:57;79.50;61.50;38.00
80555;PMS5003;69889;55.040;73.076;2024-02-23T08:04:23;76.00;60.25;35.00
80555;PMS5003;69889;55.040;73.076;2024-02-23T08:06:50;73.00;59.00;35.00
80555;PMS5003;69889;55.040;73.076;2024-02-23T08:09:17;71.00;52.50;32.25
80555;PMS5003;69889;55.040;73.076;2024-02-23T08:11:43;74.50;58.50;34.25
80555;PMS5003;69889;55.040;73.076;2024-02-23T08:14:10;73.00;56.00;34.75
80555;PMS5003;69889;55.040;73.076;2024-02-23T08:16:37;69.50;53.50;34.00
80555;PMS5003;69889;55.040;73.076;2024-02-23T08:19:04;71.75;55.50;34.00
80555;PMS5003;69889;55.040;73.076;2024-02-23T08:21:30;68.25;51.25;32.25
80555;PMS5003;69889;55.040;73.076;2024-02-23T08:23:57;67.50;51.75;31.50
80555;PMS5003;69889;55.040;73.076;2024-02-23T08:26:23;63.25;48.50;30.00
80555;PMS5003;69889;55.040;73.076;2024-02-23T08:28:50;64.00;49.50;30.75
80555;PMS5003;69889;55.040;73.076;2024-02-23T08:31:16;63.00;49.25;31.00
80555;PMS5003;69889;55.040;73.076;2024-02-23T08:33:43;65.50;49.50;31.25
80555;PMS5003;69889;55.040;73.076;2024-02-23T08:36:10;65.25;51.25;31.50
80555;PMS5003;69889;55.040;73.076;2024-02-23T08:38:36;63.00;48.75;30.50
80555;PMS5003;69889;55.040;73.076;2024-02-23T08:41:03;66.50;50.75;32.00
80555;PMS5003;69889;55.040;73.076;2024-02-23T08:43:30;70.25;53.50;32.00
80555;PMS5003;69889;55.040;73.076;2024-02-23T08:45:56;61.25;47.50;29.50
80555;PMS5003;69889;55.040;73.076;2024-02-23T08:48:23;67.75;52.25;31.75
80555;PMS5003;69889;55.040;73.076;2024-02-23T08:50:49;65.75;49.50;29.50
80555;PMS5003;69889;55.040;73.076;2024-02-23T08:53:16;64.50;49.50;30.00
80555;PMS5003;69889;55.040;73.076;2024-02-23T08:55:42;64.75;49.50;31.00
80555;PMS5003;69889;55.040;73.076;2024-02-23T08:58:09;63.00;49.00;31.00
80555;PMS5003;69889;55.040;73.076;2024-02-23T09:00:35;62.50;48.00;31.00
80555;PMS5003;69889;55.040;73.076;2024-02-23T09:03:03;65.25;47.50;29.75
80555;PMS5003;69889;55.040;73.076;2024-02-23T09:05:29;64.25;50.00;30.00
80555;PMS5003;69889;55.040;73.076;2024-02-23T09:07:57;65.25;49.50;31.00
80555;PMS5003;69889;55.040;73.076;2024-02-23T09:10:23;69.75;53.50;32.25
80555;PMS5003;69889;55.040;73.076;2024-02-23T09:12:50;65.00;51.00;31.50
80555;PMS5003;69889;55.040;73.076;2024-02-23T09:15:16;67.25;51.50;31.25
80555;PMS5003;69889;55.040;73.076;2024-02-23T09:17:43;72.25;53.25;32.50
80555;PMS5003;69889;55.040;73.076;2024-02-23T09:20:09;64.00;49.25;30.00
80555;PMS5003;69889;55.040;73.076;2024-02-23T09:22:38;64.50;50.25;31.00
80555;PMS5003;69889;55.040;73.076;2024-02-23T09:25:06;66.50;49.50;30.00
80555;PMS5003;69889;55.040;73.076;2024-02-23T09:27:32;66.00;52.00;32.50
80555;PMS5003;69889;55.040;73.076;2024-02-23T09:30:01;64.50;49.75;30.50
80555;PMS5003;69889;55.040;73.076;2024-02-23T09:32:27;64.75;49.25;31.00
80555;PMS5003;69889;55.040;73.076;2024-02-23T09:34:53;64.00;47.50;31.00
80555;PMS5003;69889;55.040;73.076;2024-02-23T09:37:20;63.00;48.25;30.00
80555;PMS5003;69889;55.040;73.076;2024-02-23T09:39:47;65.50;50.50;30.50
80555;PMS5003;69889;55.040;73.076;2024-02-23T09:42:13;61.25;47.25;29.25
80555;PMS5003;69889;55.040;73.076;2024-02-23T09:44:41;66.50;51.50;31.00
80555;PMS5003;69889;55.040;73.076;2024-02-23T09:47:08;59.25;46.50;29.50
80555;PMS5003;69889;55.040;73.076;2024-02-23T09:49:39;64.50;48.75;30.50
80555;PMS5003;69889;55.040;73.076;2024-02-23T09:52:09;64.75;49.50;31.50
80555;PMS5003;69889;55.040;73.076;2024-02-23T09:54:36;62.00;48.50;30.25
80555;PMS5003;69889;55.040;73.076;2024-02-23T09:57:05;67.75;51.50;31.25
80555;PMS5003;69889;55.040;73.076;2024-02-23T09:59:33;68.25;52.50;33.00
80555;PMS5003;69889;55.040;73.076;2024-02-23T10:02:01;69.50;54.50;33.50
80555;PMS5003;69889;55.040;73.076;2024-02-23T10:04:29;72.00;56.25;33.75
80555;PMS5003;69889;55.040;73.076;2024-02-23T10:06:57;79.00;63.75;37.50
80555;PMS5003;69889;55.040;73.076;2024-02-23T10:09:23;63.50;49.50;30.25
80555;PMS5003;69889;55.040;73.076;2024-02-23T10:11:54;72.25;57.00;34.00
80555;PMS5003;69889;55.040;73.076;2024-02-23T10:14:21;86.00;70.00;41.75
80555;PMS5003;69889;55.040;73.076;2024-02-23T10:16:47;80.50;63.25;37.25
80555;PMS5003;69889;55.040;73.076;2024-02-23T10:19:22;90.00;69.00;40.00
80555;PMS5003;69889;55.040;73.076;2024-02-23T10:21:55;86.25;69.00;40.50
80555;PMS5003;69889;55.040;73.076;2024-02-23T10:24:22;85.00;68.75;41.50
80555;PMS5003;69889;55.040;73.076;2024-02-23T10:26:49;94.00;73.00;42.50
80555;PMS5003;69889;55.040;73.076;2024-02-23T10:29:15;92.75;74.25;42.50
80555;PMS5003;69889;55.040;73.076;2024-02-23T10:31:42;94.25;78.50;45.00
80555;PMS5003;69889;55.040;73.076;2024-02-23T10:34:13;103.50;83.25;48.00
80555;PMS5003;69889;55.040;73.076;2024-02-23T10:36:41;96.50;75.50;41.75
80555;PMS5003;69889;55.040;73.076;2024-02-23T10:39:11;100.75;80.00;45.00
80555;PMS5003;69889;55.040;73.076;2024-02-23T10:41:44;84.50;68.50;40.25
80555;PMS5003;69889;55.040;73.076;2024-02-23T10:44:46;82.75;65.50;39.00
80555;PMS5003;69889;55.040;73.076;2024-02-23T10:47:14;100.00;82.00;48.00
80555;PMS5003;69889;55.040;73.076;2024-02-23T10:49:41;95.50;75.50;44.75
80555;PMS5003;69889;55.040;73.076;2024-02-23T10:52:08;100.50;79.00;45.00
80555;PMS5003;69889;55.040;73.076;2024-02-23T10:54:38;101.50;81.50;49.50
80555;PMS5003;69889;55.040;73.076;2024-02-23T10:57:06;111.00;88.00;50.75
80555;PMS5003;69889;55.040;73.076;2024-02-23T10:59:32;105.75;83.25;47.25
80555;PMS5003;69889;55.040;73.076;2024-02-23T11:01:59;122.00;99.25;55.50
80555;PMS5003;69889;55.040;73.076;2024-02-23T11:04:26;122.75;97.75;59.25
80555;PMS5003;69889;55.040;73.076;2024-02-23T11:06:54;116.00;95.50;58.50
80555;PMS5003;69889;55.040;73.076;2024-02-23T11:09:21;116.00;94.00;55.75
80555;PMS5003;69889;55.040;73.076;2024-02-23T11:11:55;117.50;91.75;52.25
80555;PMS5003;69889;55.040;73.076;2024-02-23T11:14:35;111.00;88.75;52.00
80555;PMS5003;69889;55.040;73.076;2024-02-23T11:17:02;110.50;89.00;53.25
80555;PMS5003;69889;55.040;73.076;2024-02-23T11:19:33;111.50;91.25;54.00
80555;PMS5003;69889;55.040;73.076;2024-02-23T11:22:00;112.00;91.50;55.00
80555;PMS5003;69889;55.040;73.076;2024-02-23T11:24:30;99.50;84.00;50.00
80555;PMS5003;69889;55.040;73.076;2024-02-23T11:26:57;107.75;86.50;49.50
80555;PMS5003;69889;55.040;73.076;2024-02-23T11:29:27;102.50;84.50;50.00
80555;PMS5003;69889;55.040;73.076;2024-02-23T11:31:55;104.50;84.00;49.00
80555;PMS5003;69889;55.040;73.076;2024-02-23T11:34:26;106.25;87.50;53.50
80555;PMS5003;69889;55.040;73.076;2024-02-23T11:36:52;109.25;90.50;53.00
80555;PMS5003;69889;55.040;73.076;2024-02-23T11:39:19;111.50;91.25;52.75
80555;PMS5003;69889;55.040;73.076;2024-02-23T11:41:50;106.00;90.75;53.00
80555;PMS5003;69889;55.040;73.076;2024-02-23T11:44:17;103.50;84.75;50.50
80555;PMS5003;69889;55.040;73.076;2024-02-23T11:46:43;101.75;84.75;49.50
80555;PMS5003;69889;55.040;73.076;2024-02-23T11:49:17;100.50;83.50;49.75
80555;PMS5003;69889;55.040;73.076;2024-02-23T11:51:44;105.50;86.00;49.50
80555;PMS5003;69889;55.040;73.076;2024-02-23T11:54:11;102.50;85.00;51.00
80555;PMS5003;69889;55.040;73.076;2024-02-23T11:56:38;103.00;85.00;49.75
80555;PMS5003;69889;55.040;73.076;2024-02-23T11:59:06;108.00;86.50;51.75
80555;PMS5003;69889;55.040;73.076;2024-02-23T12:01:32;109.50;87.00;53.00
80555;PMS5003;69889;55.040;73.076;2024-02-23T12:03:59;106.75;91.50;52.50
80555;PMS5003;69889;55.040;73.076;2024-02-23T12:06:25;99.00;84.00;51.00
80555;PMS5003;69889;55.040;73.076;2024-02-23T12:08:56;101.50;85.00;50.50
80555;PMS5003;69889;55.040;73.076;2024-02-23T12:11:22;102.25;83.50;49.75
80555;PMS5003;69889;55.040;73.076;2024-02-23T12:13:49;102.25;82.50;47.50
80555;PMS5003;69889;55.040;73.076;2024-02-23T12:16:36;103.00;83.75;46.00
80555;PMS5003;69889;55.040;73.076;2024-02-23T12:19:03;98.50;83.25;49.00
80555;PMS5003;69889;55.040;73.076;2024-02-23T12:21:30;95.50;77.50;47.75
80555;PMS5003;69889;55.040;73.076;2024-02-23T12:23:56;104.75;86.50;50.00
80555;PMS5003;69889;55.040;73.076;2024-02-23T12:26:23;101.50;81.25;49.50
80555;PMS5003;69889;55.040;73.076;2024-02-23T12:28:49;100.00;80.25;45.50
80555;PMS5003;69889;55.040;73.076;2024-02-23T12:31:32;97.50;78.25;47.25
80555;PMS5003;69889;55.040;73.076;2024-02-23T12:34:00;89.00;74.50;44.75
80555;PMS5003;69889;55.040;73.076;2024-02-23T12:36:28;95.75;77.25;45.75
80555;PMS5003;69889;55.040;73.076;2024-02-23T12:39:07;93.50;75.75;43.00
80555;PMS5003;69889;55.040;73.076;2024-02-23T12:41:34;94.50;76.00;46.50
80555;PMS5003;69889;55.040;73.076;2024-02-23T12:44:00;98.00;81.00;46.75
80555;PMS5003;69889;55.040;73.076;2024-02-23T12:46:27;92.50;74.75;44.50
80555;PMS5003;69889;55.040;73.076;2024-02-23T12:48:53;99.50;78.75;45.50
80555;PMS5003;69889;55.040;73.076;2024-02-23T12:51:30;92.50;72.25;42.75
80555;PMS5003;69889;55.040;73.076;2024-02-23T12:53:56;84.00;71.50;41.50
80555;PMS5003;69889;55.040;73.076;2024-02-23T12:56:23;97.75;73.75;43.00
80555;PMS5003;69889;55.040;73.076;2024-02-23T12:59:14;89.25;74.25;42.25
80555;PMS5003;69889;55.040;73.076;2024-02-23T13:01:40;87.25;70.00;40.00
80555;PMS5003;69889;55.040;73.076;2024-02-23T13:04:07;93.00;72.50;39.75
80555;PMS5003;69889;55.040;73.076;2024-02-23T13:06:50;83.50;68.75;39.50
80555;PMS5003;69889;55.040;73.076;2024-02-23T13:09:17;84.50;64.50;38.50
80555;PMS5003;69889;55.040;73.076;2024-02-23T13:11:44;80.00;63.50;36.00
80555;PMS5003;69889;55.040;73.076;2024-02-23T13:14:12;79.00;62.00;36.00
80555;PMS5003;69889;55.040;73.076;2024-02-23T13:16:38;76.50;60.50;35.50
80555;PMS5003;69889;55.040;73.076;2024-02-23T13:19:05;76.25;57.00;33.50
80555;PMS5003;69889;55.040;73.076;2024-02-23T13:21:51;74.00;56.25;33.50
80555;PMS5003;69889;55.040;73.076;2024-02-23T13:24:18;74.25;56.50;32.75
80555;PMS5003;69889;55.040;73.076;2024-02-23T13:26:44;71.75;54.00;33.50
80555;PMS5003;69889;55.040;73.076;2024-02-23T13:29:11;69.75;52.25;30.50
80555;PMS5003;69889;55.040;73.076;2024-02-23T13:31:37;73.00;55.75;33.00
80555;PMS5003;69889;55.040;73.076;2024-02-23T13:34:21;68.00;52.00;32.00
80555;PMS5003;69889;55.040;73.076;2024-02-23T13:36:48;71.50;52.50;31.50